sensor_id;sensor_type;location;lat;lon;timestamp;P1;durP1;ratioP1;P2;durP2;ratioP2
15952;SDS011;8075;47.766;8.846;2022-12-29T00:01:51;6.80;;;6.20;;
15952;SDS011;8075;47.766;8.846;2022-12-29T00:04:17;6.90;;;6.30;;
15952;SDS011;8075;47.766;8.846;2022-12-29T00:06:44;6.53;;;5.95;;
15952;SDS011;8075;47.766;8.846;2022-12-29T00:09:11;7.50;;;6.90;;
15952;SDS011;8075;47.766;8.846;2022-12-29T00:11:40;7.90;;;7.10;;
15952;SDS011;8075;47.766;8.846;2022-12-29T00:14:06;7.00;;;6.40;;
15952;SDS011;8075;47.766;8.846;2022-12-29T00:16:50;7.00;;;6.40;;
15952;SDS011;8075;47.766;8.846;2022-12-29T00:19:16;7.15;;;6.55;;
15952;SDS011;8075;47.766;8.846;2022-12-29T00:22:01;6.93;;;6.22;;
15952;SDS011;8075;47.766;8.846;2022-12-29T00:24:46;7.47;;;6.85;;
15952;SDS011;8075;47.766;8.846;2022-12-29T00:27:30;6.97;;;6.38;;
15952;SDS011;8075;47.766;8.846;2022-12-29T00:30:16;7.70;;;7.00;;
15952;SDS011;8075;47.766;8.846;2022-12-29T00:33:17;6.67;;;6.07;;
15952;SDS011;8075;47.766;8.846;2022-12-29T00:38:29;7.13;;;6.50;;
15952;SDS011;8075;47.766;8.846;2022-12-29T00:41:14;7.03;;;6.32;;
15952;SDS011;8075;47.766;8.846;2022-12-29T00:43:59;6.82;;;6.22;;
15952;SDS011;8075;47.766;8.846;2022-12-29T00:46:32;6.80;;;6.20;;
15952;SDS011;8075;47.766;8.846;2022-12-29T00:48:58;7.28;;;6.57;;
15952;SDS011;8075;47.766;8.846;2022-12-29T00:51:43;7.53;;;6.82;;
15952;SDS011;8075;47.766;8.846;2022-12-29T00:54:09;7.13;;;6.50;;
15952;SDS011;8075;47.766;8.846;2022-12-29T00:56:35;7.07;;;6.38;;
15952;SDS011;8075;47.766;8.846;2022-12-29T00:59:01;7.35;;;6.60;;
15952;SDS011;8075;47.766;8.846;2022-12-29T01:01:27;7.13;;;6.30;;
15952;SDS011;8075;47.766;8.846;2022-12-29T01:03:53;6.28;;;5.78;;
15952;SDS011;8075;47.766;8.846;2022-12-29T01:06:19;7.07;;;6.38;;
15952;SDS011;8075;47.766;8.846;2022-12-29T01:08:45;6.18;;;5.68;;
15952;SDS011;8075;47.766;8.846;2022-12-29T01:11:12;6.63;;;6.03;;
15952;SDS011;8075;47.766;8.846;2022-12-29T01:13:38;6.38;;;5.78;;
15952;SDS011;8075;47.766;8.846;2022-12-29T01:16:06;6.43;;;5.88;;
15952;SDS011;8075;47.766;8.846;2022-12-29T01:18:32;6.88;;;6.18;;
15952;SDS011;8075;47.766;8.846;2022-12-29T01:21:01;6.35;;;5.85;;
15952;SDS011;8075;47.766;8.846;2022-12-29T01:23:28;5.65;;;5.20;;
15952;SDS011;8075;47.766;8.846;2022-12-29T01:25:54;6.07;;;5.47;;
15952;SDS011;8075;47.766;8.846;2022-12-29T01:28:21;6.70;;;5.57;;
15952;SDS011;8075;47.766;8.846;2022-12-29T01:30:47;5.60;;;5.15;;
15952;SDS011;8075;47.766;8.846;2022-12-29T01:33:13;6.03;;;5.53;;
15952;SDS011;8075;47.766;8.846;2022-12-29T01:35:39;5.53;;;5.05;;
15952;SDS011;8075;47.766;8.846;2022-12-29T01:38:05;5.25;;;4.85;;
15952;SDS011;8075;47.766;8.846;2022-12-29T01:40:32;5.45;;;4.88;;
15952;SDS011;8075;47.766;8.846;2022-12-29T01:42:58;5.03;;;4.60;;
15952;SDS011;8075;47.766;8.846;2022-12-29T01:45:24;5.07;;;4.68;;
15952;SDS011;8075;47.766;8.846;2022-12-29T01:47:55;4.78;;;4.38;;
15952;SDS011;8075;47.766;8.846;2022-12-29T01:50:28;5.03;;;4.60;;
15952;SDS011;8075;47.766;8.846;2022-12-29T01:53:00;4.50;;;4.20;;
15952;SDS011;8075;47.766;8.846;2022-12-29T01:55:28;4.93;;;4.53;;
15952;SDS011;8075;47.766;8.846;2022-12-29T01:57:55;4.78;;;4.38;;
15952;SDS011;8075;47.766;8.846;2022-12-29T02:00:22;4.63;;;4.22;;
15952;SDS011;8075;47.766;8.846;2022-12-29T02:02:50;5.00;;;4.43;;
15952;SDS011;8075;47.766;8.846;2022-12-29T02:07:45;4.38;;;3.97;;
15952;SDS011;8075;47.766;8.846;2022-12-29T02:10:12;5.00;;;4.50;;
15952;SDS011;8075;47.766;8.846;2022-12-29T02:12:38;4.72;;;4.10;;
15952;SDS011;8075;47.766;8.846;2022-12-29T02:15:05;4.55;;;4.15;;
15952;SDS011;8075;47.766;8.846;2022-12-29T02:18:35;4.25;;;3.85;;
15952;SDS011;8075;47.766;8.846;2022-12-29T02:28:00;4.80;;;4.40;;
15952;SDS011;8075;47.766;8.846;2022-12-29T02:40:37;4.93;;;4.50;;
15952;SDS011;8075;47.766;8.846;2022-12-29T02:43:13;4.80;;;4.40;;
15952;SDS011;8075;47.766;8.846;2022-12-29T02:51:10;5.20;;;4.70;;
15952;SDS011;8075;47.766;8.846;2022-12-29T02:53:38;4.97;;;4.57;;
15952;SDS011;8075;47.766;8.846;2022-12-29T02:56:23;5.30;;;4.80;;
15952;SDS011;8075;47.766;8.846;2022-12-29T02:58:49;5.53;;;5.03;;
15952;SDS011;8075;47.766;8.846;2022-12-29T03:06:51;4.87;;;4.33;;
15952;SDS011;8075;47.766;8.846;2022-12-29T03:11:58;5.00;;;4.50;;
15952;SDS011;8075;47.766;8.846;2022-12-29T03:14:37;5.00;;;4.30;;
15952;SDS011;8075;47.766;8.846;2022-12-29T03:19:53;4.65;;;4.20;;
15952;SDS011;8075;47.766;8.846;2022-12-29T03:22:22;4.18;;;3.83;;
15952;SDS011;8075;47.766;8.846;2022-12-29T03:25:12;4.15;;;3.75;;
15952;SDS011;8075;47.766;8.846;2022-12-29T03:28:02;4.72;;;4.25;;
15952;SDS011;8075;47.766;8.846;2022-12-29T03:30:27;5.10;;;4.60;;
15952;SDS011;8075;47.766;8.846;2022-12-29T03:33:01;4.75;;;4.25;;
15952;SDS011;8075;47.766;8.846;2022-12-29T03:35:29;6.13;;;3.90;;
15952;SDS011;8075;47.766;8.846;2022-12-29T03:38:00;4.30;;;3.90;;
15952;SDS011;8075;47.766;8.846;2022-12-29T03:40:30;3.85;;;3.40;;
15952;SDS011;8075;47.766;8.846;2022-12-29T03:42:57;3.90;;;3.50;;
15952;SDS011;8075;47.766;8.846;2022-12-29T03:45:24;4.75;;;3.58;;
15952;SDS011;8075;47.766;8.846;2022-12-29T03:47:51;4.13;;;3.78;;
15952;SDS011;8075;47.766;8.846;2022-12-29T03:50:17;4.60;;;4.20;;
15952;SDS011;8075;47.766;8.846;2022-12-29T03:52:43;5.03;;;3.95;;
15952;SDS011;8075;47.766;8.846;2022-12-29T03:55:09;4.22;;;3.83;;
15952;SDS011;8075;47.766;8.846;2022-12-29T03:57:35;4.38;;;3.97;;
15952;SDS011;8075;47.766;8.846;2022-12-29T04:00:02;3.83;;;3.53;;
15952;SDS011;8075;47.766;8.846;2022-12-29T04:02:29;3.97;;;3.67;;
15952;SDS011;8075;47.766;8.846;2022-12-29T04:04:54;3.80;;;3.50;;
15952;SDS011;8075;47.766;8.846;2022-12-29T04:07:20;3.97;;;3.45;;
15952;SDS011;8075;47.766;8.846;2022-12-29T04:09:46;3.70;;;3.40;;
15952;SDS011;8075;47.766;8.846;2022-12-29T04:12:12;7.10;;;5.20;;
15952;SDS011;8075;47.766;8.846;2022-12-29T04:14:39;11.95;;;8.15;;
15952;SDS011;8075;47.766;8.846;2022-12-29T04:17:05;11.55;;;7.70;;
15952;SDS011;8075;47.766;8.846;2022-12-29T04:19:31;4.93;;;4.38;;
15952;SDS011;8075;47.766;8.846;2022-12-29T04:21:57;10.25;;;7.00;;
15952;SDS011;8075;47.766;8.846;2022-12-29T04:24:23;12.13;;;8.63;;
15952;SDS011;8075;47.766;8.846;2022-12-29T04:26:49;15.45;;;9.85;;
15952;SDS011;8075;47.766;8.846;2022-12-29T04:29:15;12.02;;;8.38;;
15952;SDS011;8075;47.766;8.846;2022-12-29T04:31:41;6.90;;;5.57;;
15952;SDS011;8075;47.766;8.846;2022-12-29T04:34:07;9.32;;;6.80;;
15952;SDS011;8075;47.766;8.846;2022-12-29T04:36:33;5.30;;;4.40;;
15952;SDS011;8075;47.766;8.846;2022-12-29T04:38:59;4.85;;;4.35;;
15952;SDS011;8075;47.766;8.846;2022-12-29T04:41:25;3.28;;;2.78;;
15952;SDS011;8075;47.766;8.846;2022-12-29T04:43:51;3.83;;;2.33;;
15952;SDS011;8075;47.766;8.846;2022-12-29T04:46:17;2.67;;;2.00;;
15952;SDS011;8075;47.766;8.846;2022-12-29T04:48:43;2.80;;;2.25;;
15952;SDS011;8075;47.766;8.846;2022-12-29T04:51:09;2.30;;;2.10;;
15952;SDS011;8075;47.766;8.846;2022-12-29T04:53:35;2.93;;;2.10;;
15952;SDS011;8075;47.766;8.846;2022-12-29T04:56:01;2.22;;;1.98;;
15952;SDS011;8075;47.766;8.846;2022-12-29T04:58:27;2.67;;;1.80;;
15952;SDS011;8075;47.766;8.846;2022-12-29T05:00:53;2.28;;;2.08;;
15952;SDS011;8075;47.766;8.846;2022-12-29T05:03:19;2.28;;;2.05;;
15952;SDS011;8075;47.766;8.846;2022-12-29T05:05:45;2.53;;;2.00;;
15952;SDS011;8075;47.766;8.846;2022-12-29T05:08:11;2.35;;;2.00;;
15952;SDS011;8075;47.766;8.846;2022-12-29T05:10:37;2.42;;;2.22;;
15952;SDS011;8075;47.766;8.846;2022-12-29T05:13:03;3.50;;;2.20;;
15952;SDS011;8075;47.766;8.846;2022-12-29T05:15:29;2.90;;;1.95;;
15952;SDS011;8075;47.766;8.846;2022-12-29T05:17:55;2.25;;;2.05;;
15952;SDS011;8075;47.766;8.846;2022-12-29T05:20:21;2.50;;;2.30;;
15952;SDS011;8075;47.766;8.846;2022-12-29T05:22:47;3.30;;;2.00;;
15952;SDS011;8075;47.766;8.846;2022-12-29T05:25:13;2.80;;;2.17;;
15952;SDS011;8075;47.766;8.846;2022-12-29T05:27:39;5.25;;;2.33;;
15952;SDS011;8075;47.766;8.846;2022-12-29T05:30:05;3.25;;;2.30;;
15952;SDS011;8075;47.766;8.846;2022-12-29T05:32:32;2.60;;;2.28;;
15952;SDS011;8075;47.766;8.846;2022-12-29T05:34:58;2.70;;;2.17;;
15952;SDS011;8075;47.766;8.846;2022-12-29T05:37:23;2.45;;;2.22;;
15952;SDS011;8075;47.766;8.846;2022-12-29T05:39:49;3.13;;;2.30;;
15952;SDS011;8075;47.766;8.846;2022-12-29T05:42:15;2.92;;;2.60;;
15952;SDS011;8075;47.766;8.846;2022-12-29T05:44:41;2.63;;;2.40;;
15952;SDS011;8075;47.766;8.846;2022-12-29T05:47:07;3.80;;;2.38;;
15952;SDS011;8075;47.766;8.846;2022-12-29T05:49:33;2.75;;;2.20;;
15952;SDS011;8075;47.766;8.846;2022-12-29T05:51:59;2.23;;;2.03;;
15952;SDS011;8075;47.766;8.846;2022-12-29T05:54:25;2.58;;;2.38;;
15952;SDS011;8075;47.766;8.846;2022-12-29T05:56:51;3.20;;;2.45;;
15952;SDS011;8075;47.766;8.846;2022-12-29T05:59:17;2.20;;;2.00;;
15952;SDS011;8075;47.766;8.846;2022-12-29T06:01:43;2.75;;;2.38;;
15952;SDS011;8075;47.766;8.846;2022-12-29T06:04:09;3.28;;;2.30;;
15952;SDS011;8075;47.766;8.846;2022-12-29T06:06:35;2.30;;;2.10;;
15952;SDS011;8075;47.766;8.846;2022-12-29T06:09:01;2.75;;;2.10;;
15952;SDS011;8075;47.766;8.846;2022-12-29T06:11:27;2.30;;;2.10;;
15952;SDS011;8075;47.766;8.846;2022-12-29T06:13:53;2.75;;;2.00;;
15952;SDS011;8075;47.766;8.846;2022-12-29T06:16:19;2.50;;;2.10;;
15952;SDS011;8075;47.766;8.846;2022-12-29T06:18:48;2.40;;;2.05;;
15952;SDS011;8075;47.766;8.846;2022-12-29T06:21:14;2.15;;;1.85;;
15952;SDS011;8075;47.766;8.846;2022-12-29T06:23:40;2.70;;;1.80;;
15952;SDS011;8075;47.766;8.846;2022-12-29T06:26:06;2.15;;;1.80;;
15952;SDS011;8075;47.766;8.846;2022-12-29T06:28:32;3.58;;;1.80;;
15952;SDS011;8075;47.766;8.846;2022-12-29T06:30:58;1.90;;;1.70;;
15952;SDS011;8075;47.766;8.846;2022-12-29T06:33:24;1.83;;;1.67;;
15952;SDS011;8075;47.766;8.846;2022-12-29T06:35:50;2.67;;;1.90;;
15952;SDS011;8075;47.766;8.846;2022-12-29T06:38:16;2.58;;;1.77;;
15952;SDS011;8075;47.766;8.846;2022-12-29T06:40:42;2.50;;;1.90;;
15952;SDS011;8075;47.766;8.846;2022-12-29T06:43:09;3.83;;;2.22;;
15952;SDS011;8075;47.766;8.846;2022-12-29T06:45:37;3.22;;;1.80;;
15952;SDS011;8075;47.766;8.846;2022-12-29T06:48:04;2.13;;;1.70;;
15952;SDS011;8075;47.766;8.846;2022-12-29T06:50:29;1.90;;;1.70;;
15952;SDS011;8075;47.766;8.846;2022-12-29T06:52:55;2.20;;;1.83;;
15952;SDS011;8075;47.766;8.846;2022-12-29T06:55:21;2.60;;;1.90;;
15952;SDS011;8075;47.766;8.846;2022-12-29T06:57:47;2.05;;;1.77;;
15952;SDS011;8075;47.766;8.846;2022-12-29T07:00:14;2.13;;;1.88;;
15952;SDS011;8075;47.766;8.846;2022-12-29T07:02:40;1.98;;;1.77;;
15952;SDS011;8075;47.766;8.846;2022-12-29T07:05:06;2.67;;;1.90;;
15952;SDS011;8075;47.766;8.846;2022-12-29T07:07:33;2.63;;;1.97;;
15952;SDS011;8075;47.766;8.846;2022-12-29T07:09:59;2.92;;;1.80;;
15952;SDS011;8075;47.766;8.846;2022-12-29T07:12:25;3.45;;;1.90;;
15952;SDS011;8075;47.766;8.846;2022-12-29T07:14:51;2.15;;;1.55;;
15952;SDS011;8075;47.766;8.846;2022-12-29T07:17:17;2.35;;;2.17;;
15952;SDS011;8075;47.766;8.846;2022-12-29T07:19:43;2.27;;;1.80;;
15952;SDS011;8075;47.766;8.846;2022-12-29T07:22:09;3.30;;;3.00;;
15952;SDS011;8075;47.766;8.846;2022-12-29T07:24:35;21.90;;;13.65;;
15952;SDS011;8075;47.766;8.846;2022-12-29T07:27:01;9.55;;;7.82;;
15952;SDS011;8075;47.766;8.846;2022-12-29T07:29:27;12.77;;;9.90;;
15952;SDS011;8075;47.766;8.846;2022-12-29T07:31:53;11.10;;;8.60;;
15952;SDS011;8075;47.766;8.846;2022-12-29T07:34:19;5.18;;;4.68;;
15952;SDS011;8075;47.766;8.846;2022-12-29T07:36:45;6.22;;;3.58;;
15952;SDS011;8075;47.766;8.846;2022-12-29T07:39:11;4.55;;;4.00;;
15952;SDS011;8075;47.766;8.846;2022-12-29T07:41:37;3.15;;;2.65;;
15952;SDS011;8075;47.766;8.846;2022-12-29T07:44:03;2.75;;;2.50;;
15952;SDS011;8075;47.766;8.846;2022-12-29T07:46:29;2.40;;;2.20;;
15952;SDS011;8075;47.766;8.846;2022-12-29T07:48:55;2.97;;;2.67;;
15952;SDS011;8075;47.766;8.846;2022-12-29T07:51:21;3.80;;;3.13;;
15952;SDS011;8075;47.766;8.846;2022-12-29T07:53:47;3.90;;;3.20;;
15952;SDS011;8075;47.766;8.846;2022-12-29T07:56:13;3.13;;;2.83;;
15952;SDS011;8075;47.766;8.846;2022-12-29T07:58:39;4.00;;;2.90;;
15952;SDS011;8075;47.766;8.846;2022-12-29T08:01:07;2.60;;;2.40;;
15952;SDS011;8075;47.766;8.846;2022-12-29T08:03:33;5.00;;;2.75;;
15952;SDS011;8075;47.766;8.846;2022-12-29T08:05:59;3.58;;;2.70;;
15952;SDS011;8075;47.766;8.846;2022-12-29T08:08:25;4.43;;;3.75;;
15952;SDS011;8075;47.766;8.846;2022-12-29T08:10:51;3.95;;;3.40;;
15952;SDS011;8075;47.766;8.846;2022-12-29T08:13:17;3.38;;;2.53;;
15952;SDS011;8075;47.766;8.846;2022-12-29T08:15:43;3.40;;;2.63;;
15952;SDS011;8075;47.766;8.846;2022-12-29T08:18:09;3.17;;;2.40;;
15952;SDS011;8075;47.766;8.846;2022-12-29T08:20:35;4.07;;;2.50;;
15952;SDS011;8075;47.766;8.846;2022-12-29T08:23:01;2.35;;;1.92;;
15952;SDS011;8075;47.766;8.846;2022-12-29T08:25:27;2.95;;;1.80;;
15952;SDS011;8075;47.766;8.846;2022-12-29T08:27:53;3.00;;;1.97;;
15952;SDS011;8075;47.766;8.846;2022-12-29T08:30:19;2.60;;;2.20;;
15952;SDS011;8075;47.766;8.846;2022-12-29T08:32:45;3.88;;;2.50;;
15952;SDS011;8075;47.766;8.846;2022-12-29T08:35:11;3.65;;;2.40;;
15952;SDS011;8075;47.766;8.846;2022-12-29T08:37:37;4.77;;;2.03;;
15952;SDS011;8075;47.766;8.846;2022-12-29T08:40:03;3.28;;;1.80;;
15952;SDS011;8075;47.766;8.846;2022-12-29T08:42:30;4.68;;;2.40;;
15952;SDS011;8075;47.766;8.846;2022-12-29T08:44:57;3.80;;;2.30;;
15952;SDS011;8075;47.766;8.846;2022-12-29T08:47:23;4.35;;;1.95;;
15952;SDS011;8075;47.766;8.846;2022-12-29T08:49:49;9.90;;;7.00;;
15952;SDS011;8075;47.766;8.846;2022-12-29T08:52:15;10.20;;;6.93;;
15952;SDS011;8075;47.766;8.846;2022-12-29T08:54:41;5.47;;;3.80;;
15952;SDS011;8075;47.766;8.846;2022-12-29T08:57:07;4.82;;;3.20;;
15952;SDS011;8075;47.766;8.846;2022-12-29T08:59:33;4.47;;;3.20;;
15952;SDS011;8075;47.766;8.846;2022-12-29T09:01:59;2.67;;;2.00;;
15952;SDS011;8075;47.766;8.846;2022-12-29T09:04:26;3.78;;;2.15;;
15952;SDS011;8075;47.766;8.846;2022-12-29T09:06:52;3.20;;;1.85;;
15952;SDS011;8075;47.766;8.846;2022-12-29T09:09:19;3.97;;;2.33;;
15952;SDS011;8075;47.766;8.846;2022-12-29T09:11:45;3.20;;;2.15;;
15952;SDS011;8075;47.766;8.846;2022-12-29T09:14:11;2.40;;;2.13;;
15952;SDS011;8075;47.766;8.846;2022-12-29T09:16:38;2.67;;;1.70;;
15952;SDS011;8075;47.766;8.846;2022-12-29T09:19:04;3.08;;;1.92;;
15952;SDS011;8075;47.766;8.846;2022-12-29T09:21:30;2.78;;;1.80;;
15952;SDS011;8075;47.766;8.846;2022-12-29T09:23:56;3.13;;;1.90;;
15952;SDS011;8075;47.766;8.846;2022-12-29T09:26:22;3.15;;;1.92;;
15952;SDS011;8075;47.766;8.846;2022-12-29T09:28:48;2.20;;;1.67;;
15952;SDS011;8075;47.766;8.846;2022-12-29T09:31:13;3.95;;;1.90;;
15952;SDS011;8075;47.766;8.846;2022-12-29T09:33:40;2.60;;;1.52;;
15952;SDS011;8075;47.766;8.846;2022-12-29T09:36:06;2.53;;;1.70;;
15952;SDS011;8075;47.766;8.846;2022-12-29T09:38:32;2.75;;;1.70;;
15952;SDS011;8075;47.766;8.846;2022-12-29T09:41:05;2.88;;;1.73;;
15952;SDS011;8075;47.766;8.846;2022-12-29T09:48:44;3.75;;;1.88;;
15952;SDS011;8075;47.766;8.846;2022-12-29T09:51:13;2.60;;;1.88;;
15952;SDS011;8075;47.766;8.846;2022-12-29T09:53:42;2.30;;;1.60;;
15952;SDS011;8075;47.766;8.846;2022-12-29T09:56:15;2.50;;;1.58;;
15952;SDS011;8075;47.766;8.846;2022-12-29T09:58:42;4.00;;;1.70;;
15952;SDS011;8075;47.766;8.846;2022-12-29T10:14:26;2.10;;;1.50;;
15952;SDS011;8075;47.766;8.846;2022-12-29T10:24:14;3.10;;;1.63;;
15952;SDS011;8075;47.766;8.846;2022-12-29T10:26:42;2.72;;;1.63;;
15952;SDS011;8075;47.766;8.846;2022-12-29T10:31:43;3.53;;;1.50;;
15952;SDS011;8075;47.766;8.846;2022-12-29T10:34:55;4.13;;;1.58;;
15952;SDS011;8075;47.766;8.846;2022-12-29T10:36:59;2.70;;;1.50;;
15952;SDS011;8075;47.766;8.846;2022-12-29T10:42:12;4.07;;;1.60;;
15952;SDS011;8075;47.766;8.846;2022-12-29T10:44:40;2.45;;;1.40;;
15952;SDS011;8075;47.766;8.846;2022-12-29T10:47:11;2.78;;;1.40;;
15952;SDS011;8075;47.766;8.846;2022-12-29T10:49:39;4.30;;;1.50;;
15952;SDS011;8075;47.766;8.846;2022-12-29T10:52:06;2.90;;;1.60;;
15952;SDS011;8075;47.766;8.846;2022-12-29T10:54:35;2.15;;;1.50;;
15952;SDS011;8075;47.766;8.846;2022-12-29T10:57:05;2.63;;;1.50;;
15952;SDS011;8075;47.766;8.846;2022-12-29T10:59:35;3.42;;;1.50;;
15952;SDS011;8075;47.766;8.846;2022-12-29T11:02:14;2.40;;;1.30;;
15952;SDS011;8075;47.766;8.846;2022-12-29T11:07:35;4.18;;;1.50;;
15952;SDS011;8075;47.766;8.846;2022-12-29T11:15:37;1.95;;;1.40;;
15952;SDS011;8075;47.766;8.846;2022-12-29T11:18:03;2.72;;;1.30;;
15952;SDS011;8075;47.766;8.846;2022-12-29T11:20:34;2.03;;;1.27;;
15952;SDS011;8075;47.766;8.846;2022-12-29T11:23:01;3.70;;;1.80;;
15952;SDS011;8075;47.766;8.846;2022-12-29T11:25:28;2.45;;;1.40;;
15952;SDS011;8075;47.766;8.846;2022-12-29T11:27:57;3.25;;;1.55;;
15952;SDS011;8075;47.766;8.846;2022-12-29T11:30:27;2.60;;;1.50;;
15952;SDS011;8075;47.766;8.846;2022-12-29T11:32:54;3.05;;;1.45;;
15952;SDS011;8075;47.766;8.846;2022-12-29T11:35:30;5.88;;;1.90;;
15952;SDS011;8075;47.766;8.846;2022-12-29T11:37:57;3.85;;;1.42;;
15952;SDS011;8075;47.766;8.846;2022-12-29T11:40:23;3.50;;;1.65;;
15952;SDS011;8075;47.766;8.846;2022-12-29T11:43:02;2.53;;;1.70;;
15952;SDS011;8075;47.766;8.846;2022-12-29T11:45:29;2.10;;;1.40;;
15952;SDS011;8075;47.766;8.846;2022-12-29T11:48:00;1.67;;;1.33;;
15952;SDS011;8075;47.766;8.846;2022-12-29T11:50:31;5.60;;;1.60;;
15952;SDS011;8075;47.766;8.846;2022-12-29T11:52:58;3.00;;;1.33;;
15952;SDS011;8075;47.766;8.846;2022-12-29T11:55:25;2.15;;;1.27;;
15952;SDS011;8075;47.766;8.846;2022-12-29T11:57:52;3.88;;;1.65;;
15952;SDS011;8075;47.766;8.846;2022-12-29T12:00:19;2.45;;;1.50;;
15952;SDS011;8075;47.766;8.846;2022-12-29T12:02:48;3.05;;;1.48;;
15952;SDS011;8075;47.766;8.846;2022-12-29T12:07:43;2.45;;;1.70;;
15952;SDS011;8075;47.766;8.846;2022-12-29T12:10:17;3.23;;;1.60;;
15952;SDS011;8075;47.766;8.846;2022-12-29T12:12:50;3.70;;;1.20;;
15952;SDS011;8075;47.766;8.846;2022-12-29T12:15:19;3.30;;;1.15;;
15952;SDS011;8075;47.766;8.846;2022-12-29T12:17:50;2.05;;;0.93;;
15952;SDS011;8075;47.766;8.846;2022-12-29T12:22:50;2.50;;;1.00;;
15952;SDS011;8075;47.766;8.846;2022-12-29T12:25:18;1.73;;;1.00;;
15952;SDS011;8075;47.766;8.846;2022-12-29T12:27:53;3.25;;;1.17;;
15952;SDS011;8075;47.766;8.846;2022-12-29T12:30:23;1.50;;;1.00;;
15952;SDS011;8075;47.766;8.846;2022-12-29T12:35:25;2.17;;;1.40;;
15952;SDS011;8075;47.766;8.846;2022-12-29T12:37:55;2.67;;;1.58;;
15952;SDS011;8075;47.766;8.846;2022-12-29T12:56:43;2.95;;;1.30;;
15952;SDS011;8075;47.766;8.846;2022-12-29T12:59:19;1.40;;;0.82;;
15952;SDS011;8075;47.766;8.846;2022-12-29T13:12:06;1.63;;;1.00;;
15952;SDS011;8075;47.766;8.846;2022-12-29T13:17:30;2.03;;;1.00;;
15952;SDS011;8075;47.766;8.846;2022-12-29T13:20:06;2.23;;;1.00;;
15952;SDS011;8075;47.766;8.846;2022-12-29T13:22:38;2.65;;;1.38;;
15952;SDS011;8075;47.766;8.846;2022-12-29T13:25:18;2.42;;;1.23;;
15952;SDS011;8075;47.766;8.846;2022-12-29T13:30:21;1.50;;;1.10;;
15952;SDS011;8075;47.766;8.846;2022-12-29T13:35:42;2.57;;;1.20;;
15952;SDS011;8075;47.766;8.846;2022-12-29T13:38:16;2.35;;;1.10;;
15952;SDS011;8075;47.766;8.846;2022-12-29T13:40:45;2.38;;;1.27;;
15952;SDS011;8075;47.766;8.846;2022-12-29T13:43:12;2.88;;;1.00;;
15952;SDS011;8075;47.766;8.846;2022-12-29T13:45:39;1.25;;;0.95;;
15952;SDS011;8075;47.766;8.846;2022-12-29T13:48:20;2.00;;;1.13;;
15952;SDS011;8075;47.766;8.846;2022-12-29T13:50:54;2.00;;;1.10;;
15952;SDS011;8075;47.766;8.846;2022-12-29T13:53:30;3.15;;;1.30;;
15952;SDS011;8075;47.766;8.846;2022-12-29T13:56:17;2.58;;;1.50;;
15952;SDS011;8075;47.766;8.846;2022-12-29T14:03:56;3.03;;;1.30;;
15952;SDS011;8075;47.766;8.846;2022-12-29T14:06:27;2.78;;;1.20;;
15952;SDS011;8075;47.766;8.846;2022-12-29T14:08:57;3.88;;;1.45;;
15952;SDS011;8075;47.766;8.846;2022-12-29T14:11:28;2.17;;;1.08;;
15952;SDS011;8075;47.766;8.846;2022-12-29T14:13:56;2.03;;;1.20;;
15952;SDS011;8075;47.766;8.846;2022-12-29T14:16:32;1.70;;;1.20;;
15952;SDS011;8075;47.766;8.846;2022-12-29T14:21:50;2.13;;;1.42;;
15952;SDS011;8075;47.766;8.846;2022-12-29T14:24:27;2.20;;;1.33;;
15952;SDS011;8075;47.766;8.846;2022-12-29T14:26:53;1.58;;;0.90;;
15952;SDS011;8075;47.766;8.846;2022-12-29T14:31:51;1.27;;;0.90;;
15952;SDS011;8075;47.766;8.846;2022-12-29T14:36:57;1.75;;;1.23;;
15952;SDS011;8075;47.766;8.846;2022-12-29T14:39:45;1.48;;;1.02;;
15952;SDS011;8075;47.766;8.846;2022-12-29T14:47:33;2.00;;;1.48;;
15952;SDS011;8075;47.766;8.846;2022-12-29T14:50:42;2.13;;;1.30;;
15952;SDS011;8075;47.766;8.846;2022-12-29T14:58:12;2.00;;;1.10;;
15952;SDS011;8075;47.766;8.846;2022-12-29T15:00:39;2.67;;;1.40;;
15952;SDS011;8075;47.766;8.846;2022-12-29T15:05:51;3.13;;;1.23;;
15952;SDS011;8075;47.766;8.846;2022-12-29T15:08:19;4.25;;;1.30;;
15952;SDS011;8075;47.766;8.846;2022-12-29T15:10:51;4.85;;;1.23;;
15952;SDS011;8075;47.766;8.846;2022-12-29T15:13:22;2.17;;;1.25;;
15952;SDS011;8075;47.766;8.846;2022-12-29T15:15:50;2.33;;;1.10;;
15952;SDS011;8075;47.766;8.846;2022-12-29T15:18:28;2.50;;;1.40;;
15952;SDS011;8075;47.766;8.846;2022-12-29T15:21:05;1.90;;;1.27;;
15952;SDS011;8075;47.766;8.846;2022-12-29T15:23:31;1.48;;;0.90;;
15952;SDS011;8075;47.766;8.846;2022-12-29T15:25:59;2.03;;;0.98;;
15952;SDS011;8075;47.766;8.846;2022-12-29T15:28:26;2.47;;;1.00;;
15952;SDS011;8075;47.766;8.846;2022-12-29T15:30:57;2.67;;;1.02;;
15952;SDS011;8075;47.766;8.846;2022-12-29T15:33:27;2.03;;;0.90;;
15952;SDS011;8075;47.766;8.846;2022-12-29T15:35:54;1.35;;;0.95;;
15952;SDS011;8075;47.766;8.846;2022-12-29T15:38:24;1.85;;;0.90;;
15952;SDS011;8075;47.766;8.846;2022-12-29T15:40:54;2.20;;;1.50;;
15952;SDS011;8075;47.766;8.846;2022-12-29T15:46:02;2.45;;;1.17;;
15952;SDS011;8075;47.766;8.846;2022-12-29T15:48:28;2.05;;;1.10;;
15952;SDS011;8075;47.766;8.846;2022-12-29T15:50:55;1.95;;;1.30;;
15952;SDS011;8075;47.766;8.846;2022-12-29T15:53:23;2.15;;;1.15;;
15952;SDS011;8075;47.766;8.846;2022-12-29T15:55:53;2.70;;;1.10;;
15952;SDS011;8075;47.766;8.846;2022-12-29T15:58:23;2.15;;;1.13;;
15952;SDS011;8075;47.766;8.846;2022-12-29T16:00:54;1.60;;;1.13;;
15952;SDS011;8075;47.766;8.846;2022-12-29T16:03:21;3.58;;;1.40;;
15952;SDS011;8075;47.766;8.846;2022-12-29T16:05:52;1.92;;;1.30;;
15952;SDS011;8075;47.766;8.846;2022-12-29T16:10:54;3.23;;;2.40;;
15952;SDS011;8075;47.766;8.846;2022-12-29T16:13:31;4.60;;;2.42;;
15952;SDS011;8075;47.766;8.846;2022-12-29T16:16:19;2.57;;;1.60;;
15952;SDS011;8075;47.766;8.846;2022-12-29T16:18:43;1.95;;;1.15;;
15952;SDS011;8075;47.766;8.846;2022-12-29T16:21:21;1.73;;;1.20;;
15952;SDS011;8075;47.766;8.846;2022-12-29T16:23:50;2.55;;;1.25;;
15952;SDS011;8075;47.766;8.846;2022-12-29T16:26:18;1.50;;;1.40;;
15952;SDS011;8075;47.766;8.846;2022-12-29T16:28:47;2.08;;;1.33;;
15952;SDS011;8075;47.766;8.846;2022-12-29T16:33:52;3.15;;;2.17;;
15952;SDS011;8075;47.766;8.846;2022-12-29T16:38:50;4.50;;;1.83;;
15952;SDS011;8075;47.766;8.846;2022-12-29T16:41:29;2.00;;;1.27;;
15952;SDS011;8075;47.766;8.846;2022-12-29T16:44:11;1.52;;;1.30;;
15952;SDS011;8075;47.766;8.846;2022-12-29T16:46:38;3.80;;;1.48;;
15952;SDS011;8075;47.766;8.846;2022-12-29T16:49:08;1.60;;;1.40;;
15952;SDS011;8075;47.766;8.846;2022-12-29T16:51:40;2.28;;;1.60;;
15952;SDS011;8075;47.766;8.846;2022-12-29T16:54:06;2.95;;;1.40;;
15952;SDS011;8075;47.766;8.846;2022-12-29T16:56:40;2.57;;;1.30;;
15952;SDS011;8075;47.766;8.846;2022-12-29T16:59:17;9.50;;;5.38;;
15952;SDS011;8075;47.766;8.846;2022-12-29T17:01:44;13.45;;;10.73;;
15952;SDS011;8075;47.766;8.846;2022-12-29T17:04:11;1.80;;;1.48;;
15952;SDS011;8075;47.766;8.846;2022-12-29T17:06:37;2.42;;;1.77;;
15952;SDS011;8075;47.766;8.846;2022-12-29T17:11:43;4.03;;;2.00;;
15952;SDS011;8075;47.766;8.846;2022-12-29T17:16:50;2.55;;;2.00;;
15952;SDS011;8075;47.766;8.846;2022-12-29T17:19:18;2.15;;;1.73;;
15952;SDS011;8075;47.766;8.846;2022-12-29T17:21:44;3.35;;;2.00;;
15952;SDS011;8075;47.766;8.846;2022-12-29T17:24:17;3.63;;;1.92;;
15952;SDS011;8075;47.766;8.846;2022-12-29T17:26:47;2.72;;;1.70;;
15952;SDS011;8075;47.766;8.846;2022-12-29T17:31:59;2.08;;;1.52;;
15952;SDS011;8075;47.766;8.846;2022-12-29T17:34:25;2.20;;;1.50;;
15952;SDS011;8075;47.766;8.846;2022-12-29T17:36:51;3.38;;;1.50;;
15952;SDS011;8075;47.766;8.846;2022-12-29T17:39:17;2.23;;;1.80;;
15952;SDS011;8075;47.766;8.846;2022-12-29T17:41:44;5.40;;;2.20;;
15952;SDS011;8075;47.766;8.846;2022-12-29T17:44:17;3.47;;;2.45;;
15952;SDS011;8075;47.766;8.846;2022-12-29T17:46:44;2.60;;;1.90;;
15952;SDS011;8075;47.766;8.846;2022-12-29T17:49:14;2.65;;;2.20;;
15952;SDS011;8075;47.766;8.846;2022-12-29T17:51:41;3.17;;;1.83;;
15952;SDS011;8075;47.766;8.846;2022-12-29T17:54:18;2.13;;;1.80;;
15952;SDS011;8075;47.766;8.846;2022-12-29T17:56:45;3.25;;;1.90;;